Time;durP1;ratioP1;P1;durP2;ratioP2;P2;SDS_P1;SDS_P2;PMS_P1;PMS_P2;Temp;Humidity;BMP_temperature;BMP_pressure;BME280_temperature;BME280_humidity;BME280_pressure;Samples;Min_cycle;Max_cycle;Signal;HPM_P1;HPM_P2
2022/07/09 00:01:50;;;;;;;11.27;6.75;;;;;;;17.27;100.00;102811.78;4994140;28;20096;-51
2022/07/09 00:04:15;;;;;;;11.27;7.20;;;;;;;17.24;100.00;102812.94;4993269;28;20021;-50
2022/07/09 00:06:40;;;;;;;17.15;8.38;;;;;;;17.15;100.00;102812.03;4995397;28;20025;-51
2022/07/09 00:09:06;;;;;;;14.80;8.05;;;;;;;17.11;100.00;102815.22;4995559;28;20033;-49
2022/07/09 00:11:31;;;;;;;11.68;6.90;;;;;;;17.09;100.00;102809.97;4994125;28;20068;-51
2022/07/09 00:13:56;;;;;;;10.68;7.30;;;;;;;17.09;100.00;102814.50;4996004;28;20058;-49
2022/07/09 00:16:21;;;;;;;9.98;6.90;;;;;;;17.06;100.00;102810.28;4977288;28;20026;-49
2022/07/09 00:18:47;;;;;;;12.60;7.35;;;;;;;17.04;100.00;102806.91;4996309;28;20406;-52
2022/07/09 00:21:12;;;;;;;13.30;6.53;;;;;;;17.02;100.00;102813.44;4995040;28;20052;-52
2022/07/09 00:23:38;;;;;;;10.32;6.32;;;;;;;17.00;100.00;102813.59;4995210;28;20105;-50
2022/07/09 00:26:03;;;;;;;11.55;6.45;;;;;;;16.94;100.00;102812.38;4994573;28;20137;-52
2022/07/09 00:28:28;;;;;;;16.13;6.72;;;;;;;16.93;100.00;102818.75;4995176;28;20040;-49
2022/07/09 00:30:54;;;;;;;9.80;6.60;;;;;;;16.92;100.00;102811.69;4995935;28;20034;-51
2022/07/09 00:33:19;;;;;;;13.57;6.95;;;;;;;16.85;100.00;102813.28;4995053;28;20026;-51
2022/07/09 00:35:44;;;;;;;16.20;6.72;;;;;;;16.81;100.00;102805.63;4996040;28;20065;-51
2022/07/09 00:38:09;;;;;;;10.23;6.47;;;;;;;16.84;100.00;102810.72;4994960;28;20034;-50
2022/07/09 00:40:35;;;;;;;13.80;6.78;;;;;;;16.77;100.00;102811.34;4990616;28;20026;-50
2022/07/09 00:43:00;;;;;;;12.88;6.65;;;;;;;16.79;100.00;102811.19;4996369;28;20043;-52
2022/07/09 00:45:26;;;;;;;10.80;6.40;;;;;;;16.74;100.00;102800.84;4994845;28;20033;-52
2022/07/09 00:47:51;;;;;;;10.65;6.35;;;;;;;16.72;100.00;102802.84;4993132;28;20041;-52
2022/07/09 00:50:18;;;;;;;13.02;6.63;;;;;;;16.72;100.00;102804.72;4996066;28;20553;-52
2022/07/09 00:52:43;;;;;;;11.43;6.70;;;;;;;16.66;100.00;102808.03;4983314;28;20026;-52
2022/07/09 00:55:10;;;;;;;12.85;7.18;;;;;;;16.68;100.00;102811.41;4992818;28;20075;-52
2022/07/09 00:57:35;;;;;;;15.40;7.18;;;;;;;16.64;100.00;102802.78;4994805;28;20113;-48
2022/07/09 01:00:01;;;;;;;14.27;7.10;;;;;;;16.60;100.00;102804.09;4996056;28;20036;-50
2022/07/09 01:02:26;;;;;;;12.80;7.13;;;;;;;16.46;100.00;102804.59;4994800;28;20427;-52
2022/07/09 01:04:52;;;;;;;14.75;7.32;;;;;;;16.41;100.00;102799.66;4995613;28;20105;-51
2022/07/09 01:07:17;;;;;;;12.82;6.90;;;;;;;16.36;100.00;102788.47;4995401;28;20022;-47
2022/07/09 01:09:43;;;;;;;11.65;7.28;;;;;;;16.31;100.00;102793.47;4994652;28;20030;-49
2022/07/09 01:12:08;;;;;;;10.85;7.10;;;;;;;16.22;100.00;102800.63;4994205;28;20053;-48
2022/07/09 01:14:34;;;;;;;11.80;7.82;;;;;;;16.14;100.00;102801.41;4995524;28;20173;-51
2022/07/09 01:17:01;;;;;;;13.45;8.70;;;;;;;16.17;100.00;102792.13;4996158;28;20032;-48
2022/07/09 01:19:27;;;;;;;12.98;7.75;;;;;;;16.13;100.00;102788.06;4996159;28;20037;-52
2022/07/09 01:21:53;;;;;;;18.98;8.20;;;;;;;16.21;100.00;102785.47;4994239;28;20939;-51
2022/07/09 01:24:19;;;;;;;13.32;8.57;;;;;;;16.18;100.00;102780.38;4995488;28;20213;-51
2022/07/09 01:26:44;;;;;;;16.05;8.75;;;;;;;16.15;100.00;102773.41;4976907;28;20054;-51
2022/07/09 01:29:10;;;;;;;15.80;8.50;;;;;;;16.13;100.00;102785.38;4995531;28;20465;-50
2022/07/09 01:31:36;;;;;;;14.63;8.88;;;;;;;16.04;100.00;102777.19;4994950;28;20046;-49
2022/07/09 01:34:02;;;;;;;11.90;8.77;;;;;;;15.99;100.00;102784.88;4995809;28;20028;-51
2022/07/09 01:36:27;;;;;;;14.85;8.85;;;;;;;16.03;100.00;102778.16;4997352;28;20176;-50
2022/07/09 01:38:53;;;;;;;15.77;9.25;;;;;;;16.05;100.00;102778.00;4997821;28;20060;-52
2022/07/09 01:41:18;;;;;;;15.40;9.30;;;;;;;16.05;100.00;102772.63;4997585;28;20036;-52
2022/07/09 01:43:44;;;;;;;18.70;9.27;;;;;;;16.13;100.00;102770.03;4999072;28;20058;-52
2022/07/09 01:46:09;;;;;;;14.80;9.32;;;;;;;16.11;100.00;102758.56;4998261;28;20014;-51
2022/07/09 01:48:35;;;;;;;20.85;10.05;;;;;;;16.03;100.00;102770.06;4999116;28;20563;-52
2022/07/09 01:51:01;;;;;;;15.57;9.82;;;;;;;15.96;100.00;102771.69;4998730;28;20099;-49
2022/07/09 01:53:26;;;;;;;20.52;10.63;;;;;;;15.90;100.00;102768.72;4998146;28;20030;-50
2022/07/09 01:55:52;;;;;;;15.20;9.95;;;;;;;15.89;100.00;102765.19;5002750;28;20025;-48
2022/07/09 01:58:17;;;;;;;16.33;10.13;;;;;;;15.91;100.00;102759.66;5018154;28;20151;-52
2022/07/09 02:00:43;;;;;;;19.98;10.80;;;;;;;15.84;100.00;102762.94;5018701;28;20473;-52
2022/07/09 02:03:08;;;;;;;13.02;9.68;;;;;;;15.85;100.00;102756.56;5017532;28;20028;-52
2022/07/09 02:05:34;;;;;;;17.63;9.88;;;;;;;15.88;100.00;102760.78;5018492;28;20021;-52
2022/07/09 02:07:59;;;;;;;16.30;10.45;;;;;;;15.84;100.00;102760.25;5017909;28;20109;-51
2022/07/09 02:10:24;;;;;;;19.48;10.05;;;;;;;15.78;100.00;102763.56;5016701;28;20223;-52
2022/07/09 02:12:50;;;;;;;17.70;9.25;;;;;;;15.78;100.00;102762.69;5017609;28;20096;-50
2022/07/09 02:15:15;;;;;;;12.65;8.43;;;;;;;15.74;100.00;102766.66;5017588;28;20528;-50
2022/07/09 02:17:40;;;;;;;13.85;8.48;;;;;;;15.72;100.00;102760.56;5017917;28;20536;-49
2022/07/09 02:20:08;;;;;;;14.90;9.38;;;;;;;15.65;100.00;102757.63;5018050;28;20102;-51
2022/07/09 02:22:34;;;;;;;13.75;9.38;;;;;;;15.64;100.00;102748.66;5017752;28;20036;-51
2022/07/09 02:24:59;;;;;;;14.77;9.98;;;;;;;15.66;100.00;102753.91;5016837;28;20025;-51
2022/07/09 02:27:24;;;;;;;17.38;10.30;;;;;;;15.61;100.00;102754.38;5017503;28;20049;-49
2022/07/09 02:29:49;;;;;;;18.17;10.15;;;;;;;15.63;100.00;102747.00;5008414;28;20464;-49
2022/07/09 02:32:15;;;;;;;14.93;9.60;;;;;;;15.60;100.00;102747.28;5004118;28;20033;-49
2022/07/09 02:34:40;;;;;;;14.32;9.73;;;;;;;15.57;100.00;102744.88;5006009;28;20108;-52
2022/07/09 02:37:06;;;;;;;14.32;10.40;;;;;;;15.61;100.00;102738.22;5017148;28;20411;-51
2022/07/09 02:39:31;;;;;;;17.05;10.65;;;;;;;15.64;100.00;102729.81;5018292;28;20210;-50
2022/07/09 02:41:57;;;;;;;14.30;10.35;;;;;;;15.60;100.00;102733.81;5016570;28;20040;-51
2022/07/09 02:44:22;;;;;;;16.38;10.48;;;;;;;15.57;100.00;102730.56;5017494;28;20033;-51
2022/07/09 02:46:47;;;;;;;15.30;10.48;;;;;;;15.55;100.00;102732.56;5017285;28;20025;-51
2022/07/09 02:49:13;;;;;;;13.80;11.05;;;;;;;15.50;100.00;102721.41;5016608;28;20040;-51
2022/07/09 02:51:38;;;;;;;14.93;10.75;;;;;;;15.45;100.00;102724.53;5016556;28;20079;-51
2022/07/09 02:54:04;;;;;;;15.90;10.73;;;;;;;15.49;100.00;102731.28;5017027;28;20040;-52
2022/07/09 02:56:29;;;;;;;15.27;10.18;;;;;;;15.47;100.00;102727.91;5016192;28;20032;-51
2022/07/09 02:58:55;;;;;;;16.50;10.73;;;;;;;15.44;100.00;102721.00;5017654;28;20032;-50
2022/07/09 03:01:20;;;;;;;19.02;10.77;;;;;;;15.41;100.00;102720.41;5016297;28;20027;-48
2022/07/09 03:03:46;;;;;;;16.85;10.23;;;;;;;15.43;100.00;102723.81;5017448;28;20018;-52
2022/07/09 03:06:12;;;;;;;16.73;10.23;;;;;;;15.44;100.00;102730.88;5016286;28;20369;-52
2022/07/09 03:08:38;;;;;;;16.08;10.90;;;;;;;15.41;100.00;102731.19;5016127;28;20028;-51
2022/07/09 03:11:06;;;;;;;16.23;10.27;;;;;;;15.39;100.00;102722.41;4997586;28;20025;-50
2022/07/09 03:13:32;;;;;;;18.23;10.70;;;;;;;15.34;100.00;102730.06;5017451;28;20029;-52
2022/07/09 03:15:57;;;;;;;22.98;11.52;;;;;;;15.33;100.00;102729.25;5016822;28;20310;-50
2022/07/09 03:18:23;;;;;;;20.35;12.07;;;;;;;15.28;100.00;102715.38;5016325;28;20079;-48
2022/07/09 03:20:48;;;;;;;16.10;10.77;;;;;;;15.28;100.00;102726.13;4992106;28;20033;-49
2022/07/09 03:23:13;;;;;;;17.85;10.98;;;;;;;15.21;100.00;102723.19;5016112;28;20026;-49
2022/07/09 03:25:39;;;;;;;18.20;10.88;;;;;;;15.14;100.00;102727.44;5014860;28;20032;-52
2022/07/09 03:28:05;;;;;;;15.88;10.70;;;;;;;15.12;100.00;102729.41;5016158;28;20060;-51
2022/07/09 03:30:30;;;;;;;17.98;10.00;;;;;;;15.08;100.00;102723.47;5009199;28;20380;-51
2022/07/09 03:32:55;;;;;;;16.17;10.57;;;;;;;15.05;100.00;102734.56;5016258;28;20029;-50
2022/07/09 03:35:21;;;;;;;20.95;11.23;;;;;;;15.05;100.00;102731.88;5016494;28;20373;-52
2022/07/09 03:37:46;;;;;;;19.40;11.55;;;;;;;15.04;100.00;102726.63;5016554;28;20119;-49
2022/07/09 03:40:12;;;;;;;26.23;11.90;;;;;;;15.05;100.00;102726.47;5014904;28;20029;-50
2022/07/09 03:42:37;;;;;;;17.55;12.13;;;;;;;15.05;100.00;102721.09;5015264;28;20077;-51
2022/07/09 03:45:03;;;;;;;18.55;11.57;;;;;;;15.14;100.00;102723.88;5016906;28;20112;-51
2022/07/09 03:47:28;;;;;;;14.77;11.23;;;;;;;15.15;100.00;102723.75;5001895;28;20227;-52
2022/07/09 03:49:53;;;;;;;16.17;11.38;;;;;;;15.18;100.00;102723.47;5016632;28;20112;-52
2022/07/09 03:52:19;;;;;;;17.38;11.07;;;;;;;15.19;100.00;102722.47;4997518;28;20124;-52
2022/07/09 03:54:44;;;;;;;15.10;10.30;;;;;;;15.24;100.00;102717.50;5014910;28;20053;-50
2022/07/09 03:57:10;;;;;;;17.20;9.95;;;;;;;15.20;100.00;102718.78;5016243;28;20036;-52
2022/07/09 03:59:35;;;;;;;17.98;10.32;;;;;;;15.22;100.00;102722.19;5015267;28;20268;-52
2022/07/09 04:02:00;;;;;;;15.18;9.90;;;;;;;15.19;100.00;102722.47;5015761;28;20056;-52
2022/07/09 04:04:26;;;;;;;13.43;10.68;;;;;;;15.12;100.00;102724.03;5016051;28;20029;-51
2022/07/09 04:06:51;;;;;;;15.82;11.25;;;;;;;15.13;100.00;102724.91;5015532;28;20113;-49
2022/07/09 04:09:16;;;;;;;17.42;10.95;;;;;;;15.09;100.00;102718.97;5009698;28;20103;-49
2022/07/09 04:11:42;;;;;;;21.92;11.35;;;;;;;15.08;100.00;102714.56;5014956;28;20425;-47
2022/07/09 04:14:07;;;;;;;14.45;11.13;;;;;;;15.07;100.00;102707.47;5016300;28;20122;-48
2022/07/09 04:16:32;;;;;;;14.20;10.68;;;;;;;15.02;100.00;102699.84;5016661;28;20163;-50
2022/07/09 04:18:57;;;;;;;16.60;11.48;;;;;;;15.02;100.00;102704.38;4997636;28;20013;-48
2022/07/09 04:21:23;;;;;;;17.67;12.60;;;;;;;15.02;100.00;102705.25;5014925;28;20068;-52
2022/07/09 04:23:49;;;;;;;17.90;11.95;;;;;;;15.12;100.00;102705.19;5015357;28;20117;-52
2022/07/09 04:26:14;;;;;;;19.92;13.63;;;;;;;15.19;100.00;102705.47;5014559;28;20156;-51
2022/07/09 04:28:40;;;;;;;23.42;13.32;;;;;;;15.21;100.00;102707.03;5015189;28;20041;-51
2022/07/09 04:31:05;;;;;;;20.85;14.25;;;;;;;15.22;100.00;102708.75;5014713;28;20032;-52
2022/07/09 04:33:31;;;;;;;22.27;14.95;;;;;;;15.25;100.00;102700.34;5016361;28;20510;-51
2022/07/09 04:35:56;;;;;;;23.70;14.35;;;;;;;15.34;100.00;102705.84;5015477;28;20543;-50
2022/07/09 04:38:21;;;;;;;25.40;15.30;;;;;;;15.46;100.00;102708.22;5014075;28;20029;-51
2022/07/09 04:40:47;;;;;;;26.88;16.73;;;;;;;15.61;100.00;102722.06;5014228;28;20376;-50
2022/07/09 04:43:12;;;;;;;25.25;15.63;;;;;;;15.76;100.00;102713.50;5015467;28;20021;-51
2022/07/09 04:45:38;;;;;;;32.00;16.02;;;;;;;15.92;100.00;102712.84;5015654;28;20029;-49
2022/07/09 04:48:03;;;;;;;25.58;17.35;;;;;;;16.06;100.00;102725.81;5015253;28;20053;-51
2022/07/09 04:50:29;;;;;;;34.08;20.80;;;;;;;16.16;100.00;102721.22;5015700;28;20106;-49
2022/07/09 04:52:54;;;;;;;35.13;21.80;;;;;;;16.23;100.00;102716.91;5014316;28;20017;-51
2022/07/09 04:55:21;;;;;;;32.47;21.02;;;;;;;16.28;100.00;102705.66;5013844;28;20057;-51
2022/07/09 04:57:47;;;;;;;29.38;19.65;;;;;;;16.33;100.00;102702.53;5010582;28;20284;-51
2022/07/09 05:00:12;;;;;;;30.13;19.65;;;;;;;16.35;100.00;102703.22;5013327;28;20021;-52
2022/07/09 05:02:38;;;;;;;30.88;20.17;;;;;;;16.41;100.00;102698.03;5009475;28;20044;-50
2022/07/09 05:05:06;;;;;;;30.15;19.92;;;;;;;16.44;100.00;102701.44;5014793;28;20086;-51
2022/07/09 05:07:31;;;;;;;32.72;20.70;;;;;;;16.53;100.00;102704.06;5015261;28;20029;-52
2022/07/09 05:09:57;;;;;;;24.40;18.83;;;;;;;16.47;100.00;102704.66;5011941;28;20040;-48
2022/07/09 05:12:22;;;;;;;33.75;19.77;;;;;;;16.45;100.00;102703.97;5019147;28;20035;-64
2022/07/09 05:14:47;;;;;;;30.77;19.60;;;;;;;16.47;100.00;102701.97;5018470;28;20476;-52
2022/07/09 05:17:13;;;;;;;27.85;19.38;;;;;;;16.47;100.00;102695.72;5018096;28;20026;-53
2022/07/09 05:19:38;;;;;;;37.00;20.90;;;;;;;16.45;100.00;102698.59;5019261;28;20429;-52
2022/07/09 05:22:04;;;;;;;29.10;19.52;;;;;;;16.49;100.00;102699.13;5018240;28;20026;-49
2022/07/09 05:24:29;;;;;;;35.85;19.48;;;;;;;16.54;100.00;102700.34;5018518;28;20032;-50
2022/07/09 05:26:54;;;;;;;34.08;19.60;;;;;;;16.60;100.00;102704.28;5017924;28;20123;-49
2022/07/09 05:29:22;;;;;;;30.70;19.17;;;;;;;16.69;100.00;102700.63;5018838;28;20029;-51
2022/07/09 05:31:48;;;;;;;28.35;18.80;;;;;;;16.68;100.00;102690.84;5018627;28;20052;-47
2022/07/09 05:34:14;;;;;;;33.83;19.02;;;;;;;16.70;100.00;102696.94;4991066;28;20086;-51
2022/07/09 05:36:39;;;;;;;27.50;19.42;;;;;;;16.75;100.00;102697.31;5016292;28;20025;-52
2022/07/09 05:39:07;;;;;;;29.77;19.52;;;;;;;16.72;100.00;102694.09;5018546;28;20017;-51
2022/07/09 05:41:32;;;;;;;27.05;18.95;;;;;;;16.71;100.00;102684.28;5018206;28;20361;-50
2022/07/09 05:43:57;;;;;;;33.28;20.20;;;;;;;16.74;100.00;102687.53;5019229;28;20028;-51
2022/07/09 05:46:23;;;;;;;32.38;19.75;;;;;;;16.82;100.00;102684.06;5015912;28;20033;-49
2022/07/09 05:48:48;;;;;;;31.63;19.73;;;;;;;16.87;100.00;102686.28;5004959;28;20033;-51
2022/07/09 05:51:13;;;;;;;28.60;19.17;;;;;;;16.94;100.00;102685.50;5017873;28;20503;-52
2022/07/09 05:53:38;;;;;;;32.38;19.63;;;;;;;16.98;100.00;102680.66;5018095;28;20021;-52
2022/07/09 05:56:04;;;;;;;25.98;19.10;;;;;;;16.96;100.00;102678.09;5017538;28;20033;-51
2022/07/09 05:58:29;;;;;;;31.80;19.55;;;;;;;16.97;100.00;102684.34;5017274;28;20721;-51
2022/07/09 06:00:54;;;;;;;30.13;19.75;;;;;;;16.96;100.00;102683.50;5004432;28;20397;-48
2022/07/09 06:03:20;;;;;;;29.40;19.65;;;;;;;17.00;100.00;102692.13;5000187;28;20026;-50
2022/07/09 06:05:45;;;;;;;29.33;19.35;;;;;;;17.06;100.00;102698.75;5019506;28;20033;-53
2022/07/09 06:08:10;;;;;;;29.38;19.83;;;;;;;17.11;100.00;102699.13;5014705;28;20034;-50
2022/07/09 06:10:36;;;;;;;31.20;20.63;;;;;;;17.11;100.00;102696.44;4998741;28;20043;-48
2022/07/09 06:13:02;;;;;;;32.92;20.13;;;;;;;17.21;100.00;102701.69;5018650;28;20033;-50
2022/07/09 06:15:27;;;;;;;28.73;19.63;;;;;;;17.29;100.00;102708.03;5018431;28;20516;-49
2022/07/09 06:17:52;;;;;;;29.95;19.38;;;;;;;17.33;100.00;102703.16;4999726;28;21059;-51
2022/07/09 06:20:18;;;;;;;32.55;19.88;;;;;;;17.46;100.00;102710.78;5018155;28;20111;-50
2022/07/09 06:22:43;;;;;;;36.90;20.30;;;;;;;17.54;100.00;102710.84;4999367;28;20029;-51
2022/07/09 06:25:09;;;;;;;29.60;20.25;;;;;;;17.53;100.00;102714.53;4998596;28;20033;-50
2022/07/09 06:27:35;;;;;;;33.17;20.80;;;;;;;17.58;100.00;102711.34;5017814;28;20049;-51
2022/07/09 06:30:00;;;;;;;26.38;20.25;;;;;;;17.65;100.00;102717.78;5017476;28;20095;-51
2022/07/09 06:32:26;;;;;;;32.33;20.35;;;;;;;17.72;100.00;102710.75;4999572;28;20026;-52
2022/07/09 06:34:51;;;;;;;27.88;20.65;;;;;;;17.89;100.00;102715.22;4997530;28;20170;-49
2022/07/09 06:37:17;;;;;;;30.67;20.40;;;;;;;18.07;100.00;102717.84;4998989;28;20026;-48
2022/07/09 06:39:44;;;;;;;33.53;19.77;;;;;;;18.23;100.00;102714.31;4994129;28;20041;-52
2022/07/09 06:42:10;;;;;;;29.15;20.02;;;;;;;18.24;100.00;102712.44;4998152;28;20030;-53
2022/07/09 06:44:36;;;;;;;29.75;19.77;;;;;;;18.25;100.00;102714.97;4998282;28;20128;-52
2022/07/09 06:47:02;;;;;;;34.35;20.08;;;;;;;18.33;100.00;102713.28;5000357;28;20048;-51
2022/07/09 06:49:27;;;;;;;31.13;20.35;;;;;;;18.49;100.00;102702.50;4999367;28;20026;-64
2022/07/09 06:51:52;;;;;;;33.75;20.33;;;;;;;18.71;100.00;102700.97;4997564;28;20493;-53
2022/07/09 06:54:18;;;;;;;29.90;20.17;;;;;;;19.01;100.00;102710.28;4996487;28;20566;-50
2022/07/09 06:56:43;;;;;;;28.70;19.73;;;;;;;19.26;100.00;102709.41;4997898;28;20541;-52
2022/07/09 06:59:08;;;;;;;30.35;19.58;;;;;;;19.48;100.00;102705.09;4997550;28;20071;-51
2022/07/09 07:01:34;;;;;;;25.58;17.80;;;;;;;19.67;100.00;102706.53;4997300;28;20025;-51
2022/07/09 07:03:59;;;;;;;24.48;16.58;;;;;;;19.72;100.00;102701.44;5005493;28;20044;-50
2022/07/09 07:06:24;;;;;;;24.65;15.75;;;;;;;19.75;100.00;102706.53;5015795;28;20013;-52
2022/07/09 07:08:49;;;;;;;24.73;15.68;;;;;;;19.74;100.00;102708.41;5010658;28;20210;-51
2022/07/09 07:11:15;;;;;;;24.35;15.80;;;;;;;19.64;100.00;102709.63;5015893;28;20079;-51
2022/07/09 07:13:40;;;;;;;25.00;15.38;;;;;;;19.72;100.00;102707.72;5017285;28;20056;-51
2022/07/09 07:16:06;;;;;;;24.52;14.93;;;;;;;19.83;100.00;102700.25;5016052;28;20056;-52
2022/07/09 07:18:31;;;;;;;25.02;15.10;;;;;;;19.99;100.00;102705.56;5011798;28;20083;-51
2022/07/09 07:20:56;;;;;;;24.38;14.45;;;;;;;20.20;100.00;102706.81;5004376;28;20083;-52
2022/07/09 07:23:22;;;;;;;21.20;14.43;;;;;;;20.38;100.00;102693.78;5002704;28;20017;-52
2022/07/09 07:25:47;;;;;;;18.08;13.43;;;;;;;20.34;100.00;102705.19;4995261;28;20401;-51
2022/07/09 07:28:13;;;;;;;22.02;14.48;;;;;;;20.27;100.00;102714.03;4996724;28;20381;-52
2022/07/09 07:30:38;;;;;;;16.13;13.18;;;;;;;20.27;100.00;102713.22;4996858;28;20425;-53
2022/07/09 07:33:04;;;;;;;16.88;12.57;;;;;;;20.40;100.00;102701.72;5003770;28;20555;-50
2022/07/09 07:35:29;;;;;;;17.77;10.75;;;;;;;20.61;100.00;102711.94;4984521;28;20040;-51
2022/07/09 07:37:56;;;;;;;14.70;9.05;;;;;;;20.69;100.00;102703.75;4996294;28;20017;-51
2022/07/09 07:40:21;;;;;;;14.98;9.20;;;;;;;20.64;100.00;102712.44;5001463;28;20086;-50
2022/07/09 07:42:46;;;;;;;16.38;9.38;;;;;;;20.61;100.00;102711.94;5011478;28;20021;-50
2022/07/09 07:45:11;;;;;;;18.13;9.70;;;;;;;20.62;100.00;102713.59;5013429;28;20018;-51
2022/07/09 07:47:37;;;;;;;17.38;9.73;;;;;;;20.67;100.00;102724.78;5012224;28;20068;-48
2022/07/09 07:50:03;;;;;;;17.70;9.60;;;;;;;20.66;100.00;102715.81;4996922;28;20018;-48
2022/07/09 07:52:28;;;;;;;19.20;9.60;;;;;;;20.63;100.00;102718.88;5007450;28;20537;-47
2022/07/09 07:54:54;;;;;;;13.32;9.02;;;;;;;20.58;100.00;102713.13;5011026;28;20206;-50
2022/07/09 07:57:19;;;;;;;15.82;9.30;;;;;;;20.63;100.00;102712.63;5003021;28;20098;-51
2022/07/09 07:59:46;;;;;;;15.80;9.48;;;;;;;20.74;100.00;102709.47;5000196;28;20515;-53
2022/07/09 08:02:12;;;;;;;15.93;9.68;;;;;;;20.89;100.00;102695.06;4997200;28;20109;-52
2022/07/09 08:04:37;;;;;;;15.68;9.75;;;;;;;21.00;100.00;102700.06;5008823;28;20383;-51
2022/07/09 08:07:02;;;;;;;17.55;10.38;;;;;;;21.19;98.99;102693.25;5008624;28;20022;-48
2022/07/09 08:09:28;;;;;;;17.67;9.95;;;;;;;21.39;98.24;102688.94;5001201;28;20033;-52
2022/07/09 08:11:53;;;;;;;15.32;9.95;;;;;;;21.47;97.04;102693.47;4996073;28;20481;-51
2022/07/09 08:14:19;;;;;;;13.35;9.18;;;;;;;21.42;96.80;102688.56;5006957;28;20101;-49
2022/07/09 08:16:44;;;;;;;15.35;9.15;;;;;;;21.48;96.64;102681.53;5001717;28;20519;-52
2022/07/09 08:19:09;;;;;;;14.60;9.13;;;;;;;21.53;95.73;102668.22;5007691;28;20041;-52
2022/07/09 08:21:35;;;;;;;14.15;8.35;;;;;;;21.52;94.84;102665.69;5003861;28;20091;-52
2022/07/09 08:24:04;;;;;;;16.20;8.77;;;;;;;21.54;94.39;102669.91;4996786;28;20024;-51
2022/07/09 08:26:29;;;;;;;15.93;8.90;;;;;;;;;;4995767;28;20219;-47
2022/07/09 08:28:55;;;;;;;17.40;8.60;;;;;;;21.78;91.64;102665.19;4995423;28;20101;-50
2022/07/09 08:31:21;;;;;;;10.98;8.82;;;;;;;22.06;91.20;102662.53;5003889;28;20448;-51
2022/07/09 08:33:47;;;;;;;16.90;9.52;;;;;;;22.16;91.19;102659.50;5000639;28;20109;-51
2022/07/09 08:36:13;;;;;;;14.65;8.40;;;;;;;22.47;92.21;102655.63;4994191;28;20033;-50
2022/07/09 08:38:39;;;;;;;18.60;9.40;;;;;;;22.55;90.51;102663.66;4995210;28;20512;-53
2022/07/09 08:41:05;;;;;;;14.57;8.82;;;;;;;22.69;90.14;102664.59;5007800;28;20026;-54
2022/07/09 08:43:37;;;;;;;17.70;8.75;;;;;;;22.62;89.06;102650.94;5015047;28;20483;-52
2022/07/09 08:46:03;;;;;;;18.17;9.27;;;;;;;22.62;87.52;102653.66;5013888;28;20108;-53
2022/07/09 08:48:33;;;;;;;14.55;8.35;;;;;;;22.42;85.51;102661.69;5012429;28;20029;-53
2022/07/09 08:50:59;;;;;;;14.75;8.45;;;;;;;22.32;86.46;102661.19;5010197;28;20045;-52
2022/07/09 08:53:27;;;;;;;14.40;9.40;;;;;;;22.26;88.53;102659.19;5010436;28;20041;-54
2022/07/09 08:55:53;;;;;;;17.98;9.50;;;;;;;22.10;90.72;102663.03;4999081;28;20029;-52
2022/07/09 08:58:18;;;;;;;15.88;9.60;;;;;;;22.08;91.11;102660.50;4995063;28;20271;-54
2022/07/09 09:00:44;;;;;;;13.50;9.13;;;;;;;22.11;91.37;102659.25;4995838;28;20057;-51
2022/07/09 09:03:09;;;;;;;16.55;10.48;;;;;;;22.02;91.93;102665.88;4995082;28;20554;-53
2022/07/09 09:05:34;;;;;;;15.48;9.65;;;;;;;21.81;92.96;102667.53;5015289;28;20419;-52
2022/07/09 09:07:59;;;;;;;18.33;9.70;;;;;;;21.76;94.17;102669.97;5014969;28;20025;-53
2022/07/09 09:10:27;;;;;;;21.33;9.98;;;;;;;21.72;92.98;102669.50;5008442;28;20376;-52
2022/07/09 09:13:00;;;;;;;16.90;8.82;;;;;;;21.70;92.10;102666.13;4977873;28;20125;-52
2022/07/09 09:15:27;;;;;;;11.95;8.18;;;;;;;21.73;94.17;102665.75;5008280;28;20084;-52
2022/07/09 09:17:52;;;;;;;13.63;8.20;;;;;;;21.60;92.75;102663.69;5011764;28;20025;-52
2022/07/09 09:20:18;;;;;;;14.95;8.18;;;;;;;;;;5011544;28;20040;-53
2022/07/09 09:23:04;;;;;;;16.67;8.73;;;;;;;21.54;94.06;102652.78;5013663;28;20026;-52
2022/07/09 09:25:30;;;;;;;18.02;8.52;;;;;;;21.44;94.37;102655.75;5012921;28;20564;-53
2022/07/09 09:27:57;;;;;;;12.32;8.60;;;;;;;21.37;94.98;102665.69;5014091;28;20049;-53
2022/07/09 09:30:24;;;;;;;16.75;8.38;;;;;;;21.28;96.48;102659.50;5006086;28;20036;-52
2022/07/09 09:33:00;;;;;;;17.13;8.95;;;;;;;21.23;97.99;102661.94;5008814;28;20026;-52
2022/07/09 09:35:36;;;;;;;18.08;8.65;;;;;;;21.23;98.27;102648.34;4982007;28;20452;-52
2022/07/09 09:38:01;;;;;;;17.38;9.48;;;;;;;21.30;98.16;102648.44;4986108;28;20038;-53
2022/07/09 09:40:27;;;;;;;15.52;9.52;;;;;;;21.45;97.37;102660.13;5006955;28;20033;-52
2022/07/09 09:42:53;;;;;;;14.70;9.38;;;;;;;21.56;96.76;102654.25;4994649;28;20385;-52
2022/07/09 09:45:19;;;;;;;18.38;10.02;;;;;;;21.71;97.01;102664.28;4997356;28;20116;-53
2022/07/09 09:47:49;;;;;;;16.02;8.57;;;;;;;21.80;96.83;102661.22;4976671;28;20484;-53
2022/07/09 09:50:21;;;;;;;15.00;8.10;;;;;;;21.77;98.36;102663.50;4994606;28;20262;-51
2022/07/09 09:52:47;;;;;;;17.52;9.18;;;;;;;21.45;98.36;102657.41;4994522;28;20033;-51
2022/07/09 09:55:14;;;;;;;14.98;9.63;;;;;;;21.36;99.82;102656.69;4992777;28;20033;-52
2022/07/09 09:57:40;;;;;;;14.32;8.70;;;;;;;21.39;99.29;102659.03;4992807;28;20018;-53
2022/07/09 10:00:06;;;;;;;17.48;8.65;;;;;;;21.50;98.58;102662.31;4997788;28;20038;-52
2022/07/09 10:02:32;;;;;;;13.70;8.48;;;;;;;21.55;98.69;102663.44;4997978;28;20056;-51
2022/07/09 10:04:58;;;;;;;15.00;7.88;;;;;;;21.52;96.98;102662.97;5013706;28;20389;-52
2022/07/09 10:07:24;;;;;;;14.75;7.88;;;;;;;21.46;98.09;102667.28;5016573;28;20215;-53
2022/07/09 10:09:54;;;;;;;12.65;7.88;;;;;;;21.39;98.84;102666.34;5015844;28;20559;-52
2022/07/09 10:12:29;;;;;;;12.43;7.88;;;;;;;21.17;98.89;102663.53;4990579;28;20422;-53
2022/07/09 10:14:55;;;;;;;12.45;8.10;;;;;;;21.15;99.03;102654.75;5014874;28;20033;-53
2022/07/09 10:17:20;;;;;;;11.15;8.00;;;;;;;21.27;99.61;102662.44;5012045;28;20095;-53
2022/07/09 10:19:55;;;;;;;11.95;8.10;;;;;;;21.46;100.00;102655.56;5015700;28;20483;-53
2022/07/09 10:22:21;;;;;;;13.80;7.32;;;;;;;;;;5012980;28;20056;-53
2022/07/09 10:24:51;;;;;;;9.27;6.65;;;;;;;21.87;99.70;102653.16;5014753;28;20075;-53
2022/07/09 10:27:16;;;;;;;12.07;6.38;;;;;;;22.16;97.36;102656.78;4998487;28;20552;-52
2022/07/09 10:29:56;;;;;;;11.10;6.07;;;;;;;22.27;94.33;102655.44;4980834;28;20139;-52
2022/07/09 10:32:30;;;;;;;10.02;5.13;;;;;;;22.47;93.18;102648.34;4998152;28;20112;-53
2022/07/09 10:34:57;;;;;;;6.72;3.95;;;;;;;22.38;91.40;102640.50;4997582;28;20071;-53
2022/07/09 10:37:41;;;;;;;9.75;3.67;;;;;;;22.47;92.32;102639.28;4997471;28;20396;-54
2022/07/09 10:40:20;;;;;;;10.95;3.60;;;;;;;23.01;89.86;102641.34;4987575;28;20022;-54
2022/07/09 10:42:58;;;;;;;5.43;3.70;;;;;;;23.27;86.80;102642.59;4997093;28;20048;-54
2022/07/09 10:45:31;;;;;;;9.35;3.53;;;;;;;23.44;83.21;102643.94;5005132;28;20025;-54
2022/07/09 10:48:00;;;;;;;5.72;3.10;;;;;;;23.62;82.30;102657.00;4998213;28;20034;-54
2022/07/09 10:50:28;;;;;;;3.33;2.47;;;;;;;23.57;82.68;102655.94;4997747;28;20188;-53
2022/07/09 10:52:54;;;;;;;5.15;2.67;;;;;;;24.02;82.69;102650.84;4996782;28;20516;-52
2022/07/09 10:55:21;;;;;;;5.80;2.90;;;;;;;23.92;81.01;102653.16;4977483;28;20038;-53
2022/07/09 10:57:47;;;;;;;5.97;2.85;;;;;;;23.58;79.57;102649.44;4980655;28;20017;-53
2022/07/09 11:00:35;;;;;;;5.22;2.53;;;;;;;23.37;82.79;102648.53;4997745;28;20179;-53
2022/07/09 11:03:05;;;;;;;5.22;2.40;;;;;;;23.14;82.59;102643.38;4997238;28;20075;-53
2022/07/09 11:05:33;;;;;;;3.20;2.00;;;;;;;22.96;83.56;102643.84;4990888;28;20052;-53